White Plains, Georgia
Current Conditions -  °F | °C
As of 12:35 AM on Thursday 27 Nov 2014 (Local Time) from K3J7 Reporting Station
Overcast Overcast  
Wind Chill: 45°   Ceiling: 7000
Heat Index: 45°   Visibility: 10mi
Dew Point: 36°   Wind: 0mph
Humidity: 71%   Direction: NA
Pressure: 30.03"   Gusts: NA
Location:  33.47°N, 83.04°W
Report Text: K3J7 270535Z AUTO 00000KT 10SM OVC070 07/02 A3003 RMK AO2
Loading
Personal Weather Stations






























Interactive Weather Map New forecast layout! Learn more

10-Day Weather Forecast

Advertisements
Track Severe Weather on mobile